Time;durP1;ratioP1;P1;durP2;ratioP2;P2;SDS_P1;SDS_P2;PMS_P1;PMS_P2;Temp;Humidity;BMP_temperature;BMP_pressure;BME280_temperature;BME280_humidity;BME280_pressure;Samples;Min_cycle;Max_cycle;Signal;HPM_P1;HPM_P2
2022/08/04 00:01:50;;;;;;;3.37;2.57;;;;;;;;;;10401659;28;20571;-72
2022/08/04 00:07:10;;;;;;;5.87;2.80;;;;;;;;;;10399029;28;20230;-72
2022/08/04 00:12:11;;;;;;;3.57;2.90;;;;;;;;;;10393757;28;20660;-72
2022/08/04 00:17:14;;;;;;;3.53;3.20;;;;;;;;;;10407871;28;20245;-72
2022/08/04 00:22:17;;;;;;;4.77;2.87;;;;;;;;;;10387204;28;20607;-71
2022/08/04 00:27:18;;;;;;;3.23;2.90;;;;;;;;;;10406186;28;20281;-72
2022/08/04 00:32:19;;;;;;;3.70;3.00;;;;;;;;;;10393665;28;20285;-72
2022/08/04 00:37:23;;;;;;;3.40;3.10;;;;;;;;;;10395861;28;20226;-72
2022/08/04 00:42:44;;;;;;;3.20;2.90;;;;;;;;;;10394019;28;20614;-71
2022/08/04 00:47:54;;;;;;;5.33;2.93;;;;;;;;;;10387358;28;20312;-72
2022/08/04 00:53:01;;;;;;;3.53;2.77;;;;;;;;;;10404255;28;20239;-70
2022/08/04 00:58:10;;;;;;;4.57;3.20;;;;;;;;;;10400949;28;20275;-71
2022/08/04 01:03:18;;;;;;;4.63;3.30;;;;;;;;;;10404547;28;20229;-71
2022/08/04 01:08:39;;;;;;;3.07;2.83;;;;;;;;;;10399827;28;20233;-72
2022/08/04 01:13:59;;;;;;;3.57;3.10;;;;;;;;;;10386139;28;20229;-71
2022/08/04 01:19:00;;;;;;;6.53;3.10;;;;;;;;;;10401053;28;20262;-71
2022/08/04 01:24:24;;;;;;;3.23;2.93;;;;;;;;;;10398285;28;20221;-71
2022/08/04 01:29:31;;;;;;;5.47;3.00;;;;;;;;;;10393575;28;20239;-71
2022/08/04 01:34:47;;;;;;;3.80;3.40;;;;;;;;;;10403590;28;20597;-72
2022/08/04 01:39:57;;;;;;;4.87;3.27;;;;;;;;;;10396718;28;20695;-70
2022/08/04 01:45:00;;;;;;;3.70;3.40;;;;;;;;;;10402084;28;20979;-73
2022/08/04 01:50:11;;;;;;;8.43;3.50;;;;;;;;;;10397620;28;20222;-72
2022/08/04 01:55:14;;;;;;;4.03;3.63;;;;;;;;;;10399142;28;20304;-72
2022/08/04 02:00:19;;;;;;;4.50;3.43;;;;;;;;;;10398015;28;20186;-71
2022/08/04 02:05:21;;;;;;;4.73;3.40;;;;;;;;;;10406565;28;20720;-70
2022/08/04 02:10:48;;;;;;;4.27;3.33;;;;;;;;;;10404856;28;20246;-70
2022/08/04 02:15:49;;;;;;;4.43;3.60;;;;;;;;;;10398611;28;20238;-70
2022/08/04 02:20:56;;;;;;;4.77;3.23;;;;;;;;;;10390206;28;20699;-72
2022/08/04 02:26:01;;;;;;;4.50;3.47;;;;;;;;;;10400865;28;20222;-72
2022/08/04 02:31:07;;;;;;;3.83;3.10;;;;;;;;;;10401987;28;20304;-71
2022/08/04 02:36:09;;;;;;;3.70;3.40;;;;;;;;;;10398321;28;20212;-71
2022/08/04 02:41:10;;;;;;;3.83;3.50;;;;;;;;;;10397083;28;20229;-71
2022/08/04 02:46:11;;;;;;;4.83;3.97;;;;;;;;;;10396283;28;20332;-71
2022/08/04 02:51:13;;;;;;;4.53;4.13;;;;;;;;;;10389958;28;20228;-72
2022/08/04 02:56:19;;;;;;;8.43;4.20;;;;;;;;;;10405149;28;20220;-73
2022/08/04 03:01:22;;;;;;;4.70;3.93;;;;;;;;;;10405987;28;20267;-73
2022/08/04 03:06:23;;;;;;;4.10;3.70;;;;;;;;;;10407274;28;20250;-72
2022/08/04 03:11:44;;;;;;;4.90;4.10;;;;;;;;;;10407935;28;20315;-72
2022/08/04 03:16:54;;;;;;;3.70;3.40;;;;;;;;;;10375125;28;20224;-71
2022/08/04 03:22:17;;;;;;;5.80;4.13;;;;;;;;;;10392642;28;20673;-72
2022/08/04 03:27:53;;;;;;;4.47;4.07;;;;;;;;;;10410518;28;20267;-71
2022/08/04 03:33:33;;;;;;;4.77;4.30;;;;;;;;;;10315665;28;20271;-72
2022/08/04 03:38:52;;;;;;;5.23;4.40;;;;;;;;;;10236439;28;20254;-71
2022/08/04 03:43:59;;;;;;;8.43;4.07;;;;;;;;;;10383179;28;20220;-71
2022/08/04 03:49:19;;;;;;;4.87;4.10;;;;;;;;;;10408258;28;20221;-71
2022/08/04 03:54:34;;;;;;;5.77;4.47;;;;;;;;;;10388700;28;20221;-71
2022/08/04 03:59:54;;;;;;;3.87;3.43;;;;;;;;;;10410065;28;20645;-71
2022/08/04 04:04:59;;;;;;;6.23;3.63;;;;;;;;;;10393296;28;20596;-71
2022/08/04 04:10:07;;;;;;;7.27;4.07;;;;;;;;;;10394630;28;20251;-69
2022/08/04 04:15:14;;;;;;;6.60;4.23;;;;;;;;;;10399010;28;20225;-71
2022/08/04 04:20:47;;;;;;;4.70;4.27;;;;;;;;;;10408761;28;20990;-69
2022/08/04 04:26:09;;;;;;;6.60;4.27;;;;;;;;;;10378906;28;20718;-70
2022/08/04 04:31:16;;;;;;;6.83;3.90;;;;;;;;;;10368632;28;20236;-68
2022/08/04 04:36:45;;;;;;;4.70;3.90;;;;;;;;;;10410126;28;20220;-72
2022/08/04 04:42:18;;;;;;;4.90;4.40;;;;;;;;;;10411458;28;20229;-71
2022/08/04 04:47:27;;;;;;;5.63;4.20;;;;;;;;;;10370267;28;20657;-68
2022/08/04 04:52:31;;;;;;;6.50;4.67;;;;;;;;;;10414860;28;20220;-69
2022/08/04 04:57:36;;;;;;;4.90;4.37;;;;;;;;;;10415601;28;20212;-69
2022/08/04 05:02:52;;;;;;;7.40;4.97;;;;;;;;;;10403208;28;20224;-68
2022/08/04 05:08:01;;;;;;;4.80;4.30;;;;;;;;;;10413534;28;20216;-67
2022/08/04 05:13:11;;;;;;;5.63;3.80;;;;;;;;;;10394098;28;20301;-68
2022/08/04 05:18:13;;;;;;;4.20;3.30;;;;;;;;;;10407592;28;20228;-67
2022/08/04 05:23:41;;;;;;;5.70;3.77;;;;;;;;;;10407208;28;20754;-67
2022/08/04 05:28:44;;;;;;;5.17;3.73;;;;;;;;;;10393628;28;20598;-69
2022/08/04 05:33:57;;;;;;;7.87;3.87;;;;;;;;;;10399640;28;20358;-68
2022/08/04 05:38:59;;;;;;;6.00;4.33;;;;;;;;;;10396698;28;20255;-69
2022/08/04 05:44:00;;;;;;;4.90;3.83;;;;;;;;;;10406982;28;20213;-72
2022/08/04 05:49:05;;;;;;;6.87;3.97;;;;;;;;;;10388809;28;20306;-75
2022/08/04 05:54:06;;;;;;;7.60;3.73;;;;;;;;;;10397799;28;20216;-75
2022/08/04 05:59:11;;;;;;;5.17;3.60;;;;;;;;;;10398359;28;20315;-76
2022/08/04 06:04:12;;;;;;;5.07;3.40;;;;;;;;;;10396140;28;20220;-75
2022/08/04 06:09:14;;;;;;;5.50;3.20;;;;;;;;;;10389346;28;20264;-74
2022/08/04 06:14:19;;;;;;;6.03;3.30;;;;;;;;;;10391921;28;20224;-75
2022/08/04 06:19:21;;;;;;;5.97;3.70;;;;;;;;;;10394763;28;20246;-75
2022/08/04 06:24:24;;;;;;;7.73;3.50;;;;;;;;;;10393821;28;20216;-73
2022/08/04 06:29:35;;;;;;;6.13;3.17;;;;;;;;;;10379825;28;20295;-73
2022/08/04 06:34:36;;;;;;;4.00;3.37;;;;;;;;;;10404010;28;20247;-74
2022/08/04 06:39:37;;;;;;;9.67;3.63;;;;;;;;;;10390571;28;20237;-73
2022/08/04 06:44:40;;;;;;;4.70;3.53;;;;;;;;;;10395254;28;20217;-75
2022/08/04 06:49:45;;;;;;;7.23;3.77;;;;;;;;;;10395064;28;20233;-73
2022/08/04 06:54:54;;;;;;;8.17;3.70;;;;;;;;;;10392147;28;20722;-74
2022/08/04 07:00:14;;;;;;;7.20;3.50;;;;;;;;;;10389001;28;20264;-73
2022/08/04 07:05:15;;;;;;;4.40;3.20;;;;;;;;;;10388341;28;20311;-75
2022/08/04 07:10:17;;;;;;;9.13;3.33;;;;;;;;;;10393846;28;20209;-75
2022/08/04 07:15:19;;;;;;;5.87;3.60;;;;;;;;;;10395428;28;20190;-74
2022/08/04 07:20:23;;;;;;;7.60;3.63;;;;;;;;;;10393579;28;20192;-75
2022/08/04 07:25:24;;;;;;;8.75;3.88;;;;;;;;;;10388477;28;20229;-74
2022/08/04 07:30:28;;;;;;;6.28;2.80;;;;;;;;;;10391413;28;20247;-74
2022/08/04 07:35:29;;;;;;;4.13;2.70;;;;;;;;;;10385099;28;20245;-75
2022/08/04 07:40:30;;;;;;;3.65;3.10;;;;;;;;;;10388547;28;20220;-75
2022/08/04 07:45:31;;;;;;;6.00;2.67;;;;;;;;;;10389610;28;20217;-74
2022/08/04 07:50:34;;;;;;;3.13;2.83;;;;;;;;;;10392874;28;20232;-75
2022/08/04 07:55:35;;;;;;;3.35;2.70;;;;;;;;;;10394295;28;20245;-75
2022/08/04 08:00:36;;;;;;;4.70;2.97;;;;;;;;;;10388951;28;20248;-74
2022/08/04 08:05:38;;;;;;;5.57;3.35;;;;;;;;;;10389057;28;20224;-75
2022/08/04 08:10:45;;;;;;;5.50;3.00;;;;;;;;;;10388305;28;20459;-74
2022/08/04 08:15:46;;;;;;;5.45;3.10;;;;;;;;;;10385881;28;20280;-74
2022/08/04 08:20:47;;;;;;;6.72;3.15;;;;;;;;;;10391110;28;20221;-75
2022/08/04 08:25:51;;;;;;;4.97;3.10;;;;;;;;;;10386120;28;20232;-76
2022/08/04 08:30:53;;;;;;;5.43;3.40;;;;;;;;;;10392052;28;20712;-74
2022/08/04 08:36:03;;;;;;;3.42;3.13;;;;;;;;;;10392393;28;20369;-74
2022/08/04 08:41:22;;;;;;;3.97;3.45;;;;;;;;;;10389859;28;20236;-76
2022/08/04 08:46:29;;;;;;;3.42;3.10;;;;;;;;;;10385716;28;20224;-74
2022/08/04 08:51:45;;;;;;;6.70;3.78;;;;;;;;;;10393333;28;20721;-75
2022/08/04 08:57:04;;;;;;;5.35;3.30;;;;;;;;;;10394157;28;20239;-76
2022/08/04 09:02:21;;;;;;;4.07;3.65;;;;;;;;;;10393507;28;20221;-75
2022/08/04 09:07:22;;;;;;;6.03;3.47;;;;;;;;;;10387102;28;20229;-76
2022/08/04 09:12:26;;;;;;;3.92;3.00;;;;;;;;;;10389570;28;20224;-76
2022/08/04 09:17:29;;;;;;;6.90;3.40;;;;;;;;;;10393761;28;20221;-76
2022/08/04 09:22:53;;;;;;;7.57;3.78;;;;;;;;;;10391664;28;20232;-76
2022/08/04 09:28:07;;;;;;;7.47;3.67;;;;;;;;;;10391828;28;20272;-76
2022/08/04 09:33:30;;;;;;;22.10;3.92;;;;;;;;;;10391512;28;20233;-74
2022/08/04 09:38:31;;;;;;;5.13;3.38;;;;;;;;;;10397446;28;20213;-77
2022/08/04 09:43:46;;;;;;;7.28;3.47;;;;;;;;;;10397675;28;20986;-74
2022/08/04 09:48:50;;;;;;;6.32;3.35;;;;;;;;;;10392385;28;20216;-75
2022/08/04 09:53:54;;;;;;;5.15;3.83;;;;;;;;;;10395126;28;20235;-76
2022/08/04 09:58:56;;;;;;;3.65;2.95;;;;;;;;;;10395830;28;20232;-77
2022/08/04 10:04:03;;;;;;;4.05;3.50;;;;;;;;;;10404998;28;20221;-74
2022/08/04 10:09:20;;;;;;;5.78;3.30;;;;;;;;;;10397052;28;20224;-75
2022/08/04 10:14:21;;;;;;;12.35;3.58;;;;;;;;;;10389972;28;20232;-75
2022/08/04 10:19:30;;;;;;;3.60;3.30;;;;;;;;;;10396717;28;20611;-76
2022/08/04 10:24:40;;;;;;;6.57;3.30;;;;;;;;;;10402914;28;20217;-76
2022/08/04 10:29:46;;;;;;;5.13;3.28;;;;;;;;;;10392369;28;20597;-76
2022/08/04 10:35:08;;;;;;;3.78;3.15;;;;;;;;;;10392151;28;20630;-76
2022/08/04 10:45:48;;;;;;;5.82;3.67;;;;;;;;;;10396401;28;20220;-76
2022/08/04 10:51:02;;;;;;;5.03;3.55;;;;;;;;;;10390318;28;20738;-75
2022/08/04 10:56:10;;;;;;;6.22;3.13;;;;;;;;;;10411453;28;20302;-74
2022/08/04 11:01:31;;;;;;;7.03;3.10;;;;;;;;;;10388409;28;20229;-74
2022/08/04 11:06:33;;;;;;;5.57;2.92;;;;;;;;;;10377586;28;20204;-75
2022/08/04 11:11:40;;;;;;;3.17;2.97;;;;;;;;;;10375214;28;20287;-75
2022/08/04 11:16:51;;;;;;;3.53;2.65;;;;;;;;;;10392616;28;20224;-76
2022/08/04 11:21:55;;;;;;;3.03;2.75;;;;;;;;;;10395878;28;20362;-77
2022/08/04 11:26:58;;;;;;;2.80;2.60;;;;;;;;;;10392944;28;20226;-74
2022/08/04 11:32:00;;;;;;;2.67;2.47;;;;;;;;;;10395052;28;20227;-75
2022/08/04 11:37:15;;;;;;;3.83;2.65;;;;;;;;;;10385283;28;20838;-74
2022/08/04 11:42:21;;;;;;;2.50;2.25;;;;;;;;;;10392892;28;20220;-75
2022/08/04 11:47:32;;;;;;;3.10;2.10;;;;;;;;;;10389380;28;20221;-74
2022/08/04 11:52:34;;;;;;;4.00;1.90;;;;;;;;;;10389673;28;20735;-74
2022/08/04 11:57:35;;;;;;;3.70;1.65;;;;;;;;;;10398439;28;20276;-74
2022/08/04 12:02:46;;;;;;;6.60;1.90;;;;;;;;;;10394862;28;20398;-74
2022/08/04 12:08:06;;;;;;;2.80;1.40;;;;;;;;;;10404083;28;20224;-75
2022/08/04 12:13:26;;;;;;;6.80;1.70;;;;;;;;;;10384763;28;20236;-75
2022/08/04 12:18:32;;;;;;;3.70;1.57;;;;;;;;;;10389539;28;20225;-73
2022/08/04 12:23:35;;;;;;;3.27;1.67;;;;;;;;;;10395592;28;20301;-75
2022/08/04 12:28:39;;;;;;;2.30;1.50;;;;;;;;;;10396900;28;20712;-74
2022/08/04 12:33:44;;;;;;;1.77;1.50;;;;;;;;;;10388500;28;20391;-74
2022/08/04 12:38:52;;;;;;;4.57;1.90;;;;;;;;;;10386461;28;20231;-74
2022/08/04 12:43:54;;;;;;;2.17;1.77;;;;;;;;;;10395675;28;20320;-75
2022/08/04 12:49:05;;;;;;;4.03;2.33;;;;;;;;;;10392437;28;20220;-74
2022/08/04 12:54:07;;;;;;;5.03;2.13;;;;;;;;;;10385958;28;20238;-74
2022/08/04 12:59:11;;;;;;;5.80;2.40;;;;;;;;;;10392734;28;20271;-74
2022/08/04 13:04:13;;;;;;;3.07;2.10;;;;;;;;;;10400273;28;20217;-75
2022/08/04 13:09:18;;;;;;;6.83;2.33;;;;;;;;;;10400193;28;20306;-74
2022/08/04 13:14:20;;;;;;;3.73;2.30;;;;;;;;;;10401708;28;20231;-75
2022/08/04 13:19:21;;;;;;;3.70;2.30;;;;;;;;;;10401649;28;20215;-74
2022/08/04 13:24:23;;;;;;;4.70;2.10;;;;;;;;;;10390630;28;20225;-73
2022/08/04 13:29:25;;;;;;;2.93;2.20;;;;;;;;;;10398709;28;20581;-75
2022/08/04 13:34:26;;;;;;;3.17;2.40;;;;;;;;;;10397728;28;20343;-75
2022/08/04 13:39:28;;;;;;;3.30;2.13;;;;;;;;;;10390814;28;20315;-74
2022/08/04 13:44:30;;;;;;;5.20;2.00;;;;;;;;;;10395059;28;20311;-75
2022/08/04 13:49:31;;;;;;;4.93;2.27;;;;;;;;;;10399113;28;20217;-74
2022/08/04 13:54:42;;;;;;;2.13;2.03;;;;;;;;;;10398416;28;20212;-76
2022/08/04 13:59:45;;;;;;;5.20;2.50;;;;;;;;;;10386934;28;20232;-74
2022/08/04 14:04:51;;;;;;;6.00;2.23;;;;;;;;;;10391524;28;20702;-74
2022/08/04 14:09:55;;;;;;;4.90;2.40;;;;;;;;;;10396777;28;20283;-75
2022/08/04 14:14:56;;;;;;;3.83;2.50;;;;;;;;;;10390167;28;20217;-75
2022/08/04 14:19:59;;;;;;;3.20;2.00;;;;;;;;;;10394633;28;20331;-74
2022/08/04 14:25:04;;;;;;;3.20;1.90;;;;;;;;;;10398392;28;20266;-74
2022/08/04 14:30:06;;;;;;;4.93;2.40;;;;;;;;;;10388664;28;20230;-76
2022/08/04 14:35:10;;;;;;;2.23;2.10;;;;;;;;;;10405043;28;20189;-75
2022/08/04 14:40:21;;;;;;;3.13;1.80;;;;;;;;;;10389177;28;20865;-74
2022/08/04 14:45:31;;;;;;;4.30;1.97;;;;;;;;;;10394065;28;20200;-74
2022/08/04 14:50:42;;;;;;;3.90;2.40;;;;;;;;;;10385230;28;20235;-75
2022/08/04 14:55:45;;;;;;;3.37;2.37;;;;;;;;;;10392314;28;20221;-75
2022/08/04 15:00:46;;;;;;;2.33;2.13;;;;;;;;;;10392668;28;20278;-75
2022/08/04 15:05:47;;;;;;;5.63;2.17;;;;;;;;;;10396086;28;20221;-75
2022/08/04 15:10:48;;;;;;;2.60;2.10;;;;;;;;;;10390979;28;20248;-75
2022/08/04 15:15:49;;;;;;;4.53;2.13;;;;;;;;;;10399929;28;20213;-75
2022/08/04 15:20:52;;;;;;;3.13;1.97;;;;;;;;;;10389096;28;20236;-74
2022/08/04 15:25:55;;;;;;;2.63;2.10;;;;;;;;;;10397596;28;20657;-75
2022/08/04 15:30:57;;;;;;;3.90;2.37;;;;;;;;;;10393499;28;20228;-73
2022/08/04 15:36:13;;;;;;;2.50;2.20;;;;;;;;;;10387340;28;20217;-74
2022/08/04 15:41:19;;;;;;;3.27;2.10;;;;;;;;;;10386212;28;20319;-73
2022/08/04 15:46:31;;;;;;;3.57;2.40;;;;;;;;;;10389502;28;20685;-75
2022/08/04 15:51:32;;;;;;;3.47;2.17;;;;;;;;;;10392339;28;20723;-73
2022/08/04 15:56:36;;;;;;;4.03;2.47;;;;;;;;;;10397043;28;20712;-75
2022/08/04 16:01:37;;;;;;;2.70;2.30;;;;;;;;;;10393976;28;20300;-76
2022/08/04 16:06:38;;;;;;;2.90;2.20;;;;;;;;;;10390650;28;20338;-75
2022/08/04 16:11:39;;;;;;;3.73;1.90;;;;;;;;;;10386510;28;20229;-75
2022/08/04 16:16:58;;;;;;;5.03;2.33;;;;;;;;;;10404273;28;20216;-75
2022/08/04 16:22:03;;;;;;;2.33;2.13;;;;;;;;;;10393182;28;20273;-75
2022/08/04 16:27:05;;;;;;;6.10;2.33;;;;;;;;;;10377562;28;20225;-75
2022/08/04 16:32:09;;;;;;;7.80;2.53;;;;;;;;;;10403756;28;20224;-74
2022/08/04 16:37:11;;;;;;;5.53;2.47;;;;;;;;;;10399054;28;20224;-74
2022/08/04 16:42:28;;;;;;;5.30;2.23;;;;;;;;;;10397455;28;20705;-74
2022/08/04 16:47:47;;;;;;;2.33;2.13;;;;;;;;;;10398474;28;20220;-75
2022/08/04 16:52:49;;;;;;;3.13;2.50;;;;;;;;;;10399373;28;20667;-74
2022/08/04 16:57:55;;;;;;;2.77;2.53;;;;;;;;;;10401609;28;20596;-74
2022/08/04 17:02:59;;;;;;;4.80;2.30;;;;;;;;;;10401630;28;20651;-74
2022/08/04 17:08:01;;;;;;;5.03;2.10;;;;;;;;;;10400885;28;20244;-74
2022/08/04 17:13:19;;;;;;;2.93;2.33;;;;;;;;;;10397958;28;20707;-72
2022/08/04 17:18:23;;;;;;;2.10;2.00;;;;;;;;;;10405642;28;20228;-72
2022/08/04 17:23:29;;;;;;;4.23;2.23;;;;;;;;;;10399148;28;20308;-73
2022/08/04 17:28:30;;;;;;;3.50;2.10;;;;;;;;;;10398423;28;20279;-75
2022/08/04 17:33:35;;;;;;;2.40;2.20;;;;;;;;;;10397999;28;20666;-74
2022/08/04 17:38:41;;;;;;;3.63;2.37;;;;;;;;;;10399623;28;20293;-73
2022/08/04 17:43:48;;;;;;;3.07;2.57;;;;;;;;;;10397235;28;20235;-76
2022/08/04 17:48:55;;;;;;;6.63;2.90;;;;;;;;;;10403955;28;20240;-76
2022/08/04 17:53:58;;;;;;;2.53;2.27;;;;;;;;;;10393965;28;20232;-75
2022/08/04 17:59:06;;;;;;;4.77;2.63;;;;;;;;;;10397874;28;20219;-74
2022/08/04 18:04:26;;;;;;;7.00;2.60;;;;;;;;;;10384036;28;20269;-75
2022/08/04 18:09:34;;;;;;;4.37;2.40;;;;;;;;;;10401516;28;20232;-74
2022/08/04 18:14:41;;;;;;;2.33;2.10;;;;;;;;;;10408264;28;20233;-74
2022/08/04 18:19:51;;;;;;;2.33;2.13;;;;;;;;;;10393700;28;20220;-75
2022/08/04 18:24:52;;;;;;;4.90;2.83;;;;;;;;;;10397832;28;20221;-73
2022/08/04 18:29:54;;;;;;;2.33;2.20;;;;;;;;;;10404646;28;20237;-73
2022/08/04 18:34:56;;;;;;;3.53;2.50;;;;;;;;;;10407595;28;20270;-75
2022/08/04 18:39:57;;;;;;;4.43;3.03;;;;;;;;;;10394495;28;20272;-74
2022/08/04 18:44:58;;;;;;;4.53;3.07;;;;;;;;;;10396134;28;20225;-75
2022/08/04 18:50:01;;;;;;;5.40;2.73;;;;;;;;;;10398260;28;20237;-75
2022/08/04 18:55:02;;;;;;;2.77;2.37;;;;;;;;;;10405388;28;20594;-75
2022/08/04 19:00:07;;;;;;;4.73;2.40;;;;;;;;;;10383980;28;20224;-75
2022/08/04 19:05:11;;;;;;;3.27;2.47;;;;;;;;;;10392934;28;20303;-75
2022/08/04 19:10:12;;;;;;;5.07;2.20;;;;;;;;;;10384944;28;20300;-74
2022/08/04 19:15:13;;;;;;;2.47;2.20;;;;;;;;;;10396706;28;20692;-75
2022/08/04 19:20:17;;;;;;;5.57;2.50;;;;;;;;;;10405317;28;20224;-76
2022/08/04 19:25:18;;;;;;;3.40;2.60;;;;;;;;;;10396399;28;20217;-74
2022/08/04 19:30:19;;;;;;;4.90;2.70;;;;;;;;;;10406600;28;20235;-76
2022/08/04 19:35:20;;;;;;;4.60;2.43;;;;;;;;;;10387202;28;20191;-76
2022/08/04 19:40:23;;;;;;;3.07;2.27;;;;;;;;;;10391213;28;20316;-74
2022/08/04 19:45:24;;;;;;;5.00;2.53;;;;;;;;;;10397393;28;20224;-76
2022/08/04 19:50:25;;;;;;;8.33;3.17;;;;;;;;;;10401634;28;20311;-75
2022/08/04 19:55:26;;;;;;;4.13;2.77;;;;;;;;;;10396514;28;20225;-75
2022/08/04 20:00:27;;;;;;;4.27;2.80;;;;;;;;;;10394865;28;20220;-74
2022/08/04 20:05:28;;;;;;;5.70;2.20;;;;;;;;;;10400464;28;20316;-73
2022/08/04 20:10:29;;;;;;;4.33;2.30;;;;;;;;;;10410685;28;20311;-76
2022/08/04 20:15:30;;;;;;;2.40;2.07;;;;;;;;;;10398117;28;20308;-69
2022/08/04 20:20:31;;;;;;;3.33;2.27;;;;;;;;;;10400347;28;20747;-69
2022/08/04 20:25:32;;;;;;;3.83;2.40;;;;;;;;;;10395595;28;20773;-68
2022/08/04 20:30:33;;;;;;;3.50;2.50;;;;;;;;;;10395256;28;20287;-69
2022/08/04 20:35:37;;;;;;;5.20;2.40;;;;;;;;;;10390622;28;20223;-68
2022/08/04 20:40:38;;;;;;;3.60;2.30;;;;;;;;;;10391232;28;20228;-68
2022/08/04 20:45:39;;;;;;;4.13;2.70;;;;;;;;;;10399679;28;20695;-69
2022/08/04 20:50:41;;;;;;;6.03;3.00;;;;;;;;;;10396099;28;20240;-69
2022/08/04 20:55:42;;;;;;;4.37;2.50;;;;;;;;;;10409554;28;20224;-71
2022/08/04 21:00:44;;;;;;;2.97;2.40;;;;;;;;;;10390595;28;20221;-69
2022/08/04 21:05:45;;;;;;;2.90;2.20;;;;;;;;;;10394652;28;20232;-69
2022/08/04 21:10:46;;;;;;;3.00;2.53;;;;;;;;;;10394733;28;20232;-68
2022/08/04 21:15:47;;;;;;;8.70;2.67;;;;;;;;;;10399222;28;20220;-68
2022/08/04 21:20:48;;;;;;;2.90;2.60;;;;;;;;;;10415084;28;20687;-68
2022/08/04 21:25:56;;;;;;;8.20;3.20;;;;;;;;;;10408412;28;20262;-69
2022/08/04 21:30:58;;;;;;;3.70;2.97;;;;;;;;;;10408564;28;20233;-68
2022/08/04 21:36:00;;;;;;;5.23;2.90;;;;;;;;;;10405127;28;20699;-68
2022/08/04 21:41:01;;;;;;;3.73;2.47;;;;;;;;;;10387100;28;20229;-68
2022/08/04 21:46:02;;;;;;;3.60;2.70;;;;;;;;;;10398204;28;20216;-68
2022/08/04 21:51:17;;;;;;;4.97;2.90;;;;;;;;;;10384005;28;20228;-67
2022/08/04 21:56:18;;;;;;;5.33;2.83;;;;;;;;;;10390660;28;20225;-68
2022/08/04 22:01:19;;;;;;;2.83;2.50;;;;;;;;;;10406643;28;20235;-68
2022/08/04 22:06:20;;;;;;;3.40;2.50;;;;;;;;;;10403438;28;20220;-68
2022/08/04 22:11:24;;;;;;;3.50;2.50;;;;;;;;;;10407085;28;20237;-68
2022/08/04 22:16:26;;;;;;;5.40;2.47;;;;;;;;;;10405384;28;20252;-72
2022/08/04 22:21:30;;;;;;;6.07;2.70;;;;;;;;;;10392112;28;20606;-71
2022/08/04 22:26:33;;;;;;;4.17;2.73;;;;;;;;;;10392360;28;20235;-73
2022/08/04 22:31:34;;;;;;;5.97;2.40;;;;;;;;;;10407465;28;20708;-71
2022/08/04 22:36:35;;;;;;;5.63;2.53;;;;;;;;;;10405373;28;20232;-71
2022/08/04 22:41:36;;;;;;;2.60;2.20;;;;;;;;;;10405912;28;20231;-70
2022/08/04 22:46:37;;;;;;;5.67;2.67;;;;;;;;;;10405265;28;20722;-69
2022/08/04 22:51:38;;;;;;;4.77;2.57;;;;;;;;;;10381252;28;20228;-69
2022/08/04 22:56:39;;;;;;;3.47;2.50;;;;;;;;;;10402186;28;20217;-69
2022/08/04 23:01:40;;;;;;;3.80;2.63;;;;;;;;;;10408942;28;20223;-70
2022/08/04 23:06:41;;;;;;;4.87;2.80;;;;;;;;;;10399379;28;20256;-70
2022/08/04 23:11:42;;;;;;;5.17;2.53;;;;;;;;;;10404478;28;20766;-72
2022/08/04 23:16:46;;;;;;;3.43;2.50;;;;;;;;;;10406852;28;20590;-71
2022/08/04 23:21:47;;;;;;;7.93;2.43;;;;;;;;;;10388474;28;20231;-71
2022/08/04 23:26:48;;;;;;;4.00;2.80;;;;;;;;;;10406479;28;20324;-71
2022/08/04 23:31:49;;;;;;;5.00;2.60;;;;;;;;;;10409228;28;20303;-72
2022/08/04 23:36:50;;;;;;;5.20;2.67;;;;;;;;;;10407282;28;20794;-72
2022/08/04 23:41:51;;;;;;;6.40;2.50;;;;;;;;;;10409066;28;20248;-71
2022/08/04 23:47:02;;;;;;;4.97;2.47;;;;;;;;;;10399852;28;20739;-70
2022/08/04 23:52:03;;;;;;;7.83;2.53;;;;;;;;;;10380876;28;20227;-71
2022/08/04 23:57:04;;;;;;;3.67;2.20;;;;;;;;;;10402335;28;20254;-70
